Time;durP1;ratioP1;P1;durP2;ratioP2;P2;SDS_P1;SDS_P2;PMS_P1;PMS_P2;Temp;Humidity;BMP_temperature;BMP_pressure;BME280_temperature;BME280_humidity;BME280_pressure;Samples;Min_cycle;Max_cycle;Signal;HPM_P1;HPM_P2
2022/12/19 00:01:15;;;;;;;33.92;19.33;;;1.00;99.90;;;;;;5052476;28;20041;-63
2022/12/19 00:03:45;;;;;;;31.17;18.85;;;1.00;99.90;;;;;;5053980;28;20126;-63
2022/12/19 00:06:12;;;;;;;29.50;18.08;;;1.00;99.90;;;;;;5036476;28;20036;-63
2022/12/19 00:08:40;;;;;;;32.75;19.65;;;1.00;99.90;;;;;;5019325;28;20044;-63
2022/12/19 00:11:05;;;;;;;34.08;18.08;;;1.00;99.90;;;;;;5036350;28;20041;-63
2022/12/19 00:13:31;;;;;;;31.40;20.40;;;1.00;99.90;;;;;;5035601;28;20040;-63
2022/12/19 00:16:09;;;;;;;33.70;19.88;;;1.00;99.90;;;;;;5052883;28;20037;-63
2022/12/19 00:18:35;;;;;;;30.35;18.83;;;1.00;99.90;;;;;;5054444;28;20037;-63
2022/12/19 00:21:03;;;;;;;33.53;18.27;;;1.10;99.90;;;;;;5052092;28;20402;-63
2022/12/19 00:23:31;;;;;;;35.35;19.00;;;1.10;99.90;;;;;;5036354;28;20052;-63
2022/12/19 00:26:13;;;;;;;30.33;18.05;;;1.00;99.90;;;;;;5036041;28;20056;-63
2022/12/19 00:28:39;;;;;;;31.88;19.67;;;1.10;99.90;;;;;;5051980;28;20040;-63
2022/12/19 00:31:05;;;;;;;34.92;20.60;;;1.10;99.90;;;;;;5052329;28;20047;-63
2022/12/19 00:33:30;;;;;;;33.60;19.92;;;1.10;99.90;;;;;;5053998;28;20037;-63
2022/12/19 00:35:58;;;;;;;35.53;20.00;;;1.10;99.90;;;;;;5051633;28;20029;-63
2022/12/19 00:38:23;;;;;;;35.10;19.83;;;1.10;99.90;;;;;;5052442;28;20045;-63
2022/12/19 00:40:49;;;;;;;34.80;18.77;;;1.10;99.90;;;;;;5052367;28;20052;-63
2022/12/19 00:43:14;;;;;;;33.15;19.58;;;1.10;99.90;;;;;;5051411;28;20041;-63
2022/12/19 00:45:40;;;;;;;35.55;20.38;;;1.20;99.90;;;;;;5053750;28;20033;-63
2022/12/19 00:48:06;;;;;;;36.60;20.58;;;1.20;99.90;;;;;;5035554;28;20541;-63
2022/12/19 00:50:31;;;;;;;32.30;19.63;;;1.20;99.90;;;;;;5051654;28;20116;-63
2022/12/19 00:52:57;;;;;;;34.50;19.70;;;1.20;99.90;;;;;;5053340;28;20072;-63
2022/12/19 00:55:23;;;;;;;36.80;20.75;;;1.30;99.90;;;;;;5053382;28;20057;-63
2022/12/19 00:57:49;;;;;;;35.95;19.75;;;1.30;99.90;;;;;;5051239;28;20041;-63
2022/12/19 01:00:16;;;;;;;37.22;19.75;;;1.30;99.90;;;;;;5052243;28;20036;-63
2022/12/19 01:02:42;;;;;;;34.80;20.60;;;1.30;99.90;;;;;;5052888;28;20041;-63
2022/12/19 01:05:08;;;;;;;34.97;20.67;;;1.30;99.90;;;;;;5053220;28;20444;-63
2022/12/19 01:07:35;;;;;;;39.25;21.10;;;1.30;99.90;;;;;;5035672;28;20048;-63
2022/12/19 01:10:00;;;;;;;33.00;19.23;;;1.30;99.90;;;;;;5052147;28;20502;-63
2022/12/19 01:12:44;;;;;;;33.75;20.23;;;1.40;99.90;;;;;;5052849;28;20052;-63
2022/12/19 01:15:11;;;;;;;35.78;19.65;;;1.40;99.90;;;;;;5050860;28;20385;-63
2022/12/19 01:17:37;;;;;;;36.53;20.17;;;1.40;99.90;;;;;;5052580;28;20060;-63
2022/12/19 01:20:03;;;;;;;32.85;19.75;;;1.40;99.90;;;;;;5035138;28;20494;-63
2022/12/19 01:22:29;;;;;;;34.95;21.83;;;1.40;99.90;;;;;;5035266;28;20082;-63
2022/12/19 01:24:54;;;;;;;33.97;20.60;;;1.50;99.90;;;;;;5050693;28;20139;-63
2022/12/19 01:27:20;;;;;;;34.92;21.02;;;1.50;99.90;;;;;;5018472;28;20122;-63
2022/12/19 01:29:46;;;;;;;38.83;21.40;;;1.50;99.90;;;;;;5034908;28;20041;-63
2022/12/19 01:32:11;;;;;;;35.72;21.15;;;1.60;99.90;;;;;;5051740;28;20045;-63
2022/12/19 01:34:37;;;;;;;34.38;21.25;;;1.60;99.90;;;;;;5051693;28;20124;-63
2022/12/19 01:37:03;;;;;;;33.92;19.45;;;1.60;99.90;;;;;;5034763;28;20119;-63
2022/12/19 01:39:28;;;;;;;31.20;18.80;;;1.60;99.90;;;;;;5051935;28;20053;-63
2022/12/19 01:41:54;;;;;;;36.92;19.95;;;1.60;99.90;;;;;;5034549;28;20068;-63
2022/12/19 01:44:23;;;;;;;38.95;22.73;;;1.60;99.90;;;;;;5035085;28;20044;-63
2022/12/19 01:46:52;;;;;;;37.70;22.42;;;1.60;99.90;;;;;;5034123;28;20045;-63
2022/12/19 01:49:31;;;;;;;36.17;21.30;;;1.60;99.90;;;;;;5052454;28;20498;-63
2022/12/19 01:52:01;;;;;;;36.47;20.20;;;1.70;99.90;;;;;;5033909;28;20037;-63
2022/12/19 01:54:33;;;;;;;36.35;21.67;;;1.70;99.90;;;;;;5018447;28;20045;-63
2022/12/19 01:57:01;;;;;;;37.97;22.15;;;1.70;99.90;;;;;;5050992;28;20040;-63
2022/12/19 01:59:41;;;;;;;34.22;21.02;;;1.70;99.90;;;;;;5017082;28;20045;-63
2022/12/19 02:02:13;;;;;;;37.97;20.95;;;1.70;99.90;;;;;;5052136;28;20489;-63
2022/12/19 02:04:40;;;;;;;37.65;22.77;;;1.70;99.90;;;;;;5051449;28;20550;-63
2022/12/19 02:07:07;;;;;;;35.30;21.70;;;1.70;99.90;;;;;;5051070;28;20037;-63
2022/12/19 02:09:34;;;;;;;37.88;22.05;;;1.70;99.90;;;;;;5052225;28;20045;-63
2022/12/19 02:12:00;;;;;;;34.42;20.65;;;1.80;99.90;;;;;;5052172;28;20052;-63
2022/12/19 02:14:26;;;;;;;39.53;22.42;;;1.80;99.90;;;;;;5051449;28;20037;-63
2022/12/19 02:17:20;;;;;;;36.63;22.30;;;1.80;99.90;;;;;;5051938;28;20048;-63
2022/12/19 02:20:04;;;;;;;40.03;23.85;;;1.80;99.90;;;;;;5034015;28;20120;-63
2022/12/19 02:22:58;;;;;;;38.42;21.83;;;1.90;99.90;;;;;;5034702;28;20049;-63
2022/12/19 02:25:54;;;;;;;39.72;22.98;;;1.90;99.90;;;;;;5051419;28;20191;-63
2022/12/19 02:28:22;;;;;;;44.95;22.13;;;1.90;99.90;;;;;;5033215;28;20092;-64
2022/12/19 02:31:13;;;;;;;41.42;23.98;;;1.90;99.90;;;;;;5051878;28;20037;-63
2022/12/19 02:34:09;;;;;;;38.60;23.73;;;2.00;99.90;;;;;;5052307;28;20045;-63
2022/12/19 02:36:54;;;;;;;48.40;23.40;;;2.00;99.90;;;;;;5052303;28;20048;-63
2022/12/19 02:39:44;;;;;;;43.93;22.93;;;2.00;99.90;;;;;;5051764;28;20060;-63
2022/12/19 02:42:14;;;;;;;40.13;24.40;;;1.90;99.90;;;;;;5033137;28;20287;-63
2022/12/19 02:44:51;;;;;;;44.15;25.70;;;1.90;99.90;;;;;;5034004;28;20044;-62
2022/12/19 02:47:18;;;;;;;43.78;24.60;;;1.90;99.90;;;;;;5033893;28;20045;-63
2022/12/19 02:49:43;;;;;;;39.08;23.27;;;1.90;99.90;;;;;;5032903;28;20052;-63
2022/12/19 02:52:10;;;;;;;43.97;25.55;;;1.90;99.90;;;;;;5033742;28;20063;-63
2022/12/19 02:54:37;;;;;;;41.60;25.35;;;1.90;99.90;;;;;;5051754;28;20033;-62
2022/12/19 02:57:22;;;;;;;42.08;24.83;;;2.00;99.90;;;;;;5032879;28;20123;-63
2022/12/19 03:00:06;;;;;;;40.20;24.27;;;2.00;99.90;;;;;;5051852;28;20070;-63
2022/12/19 03:02:46;;;;;;;40.10;22.65;;;2.00;99.90;;;;;;5033100;28;20045;-63
2022/12/19 03:05:20;;;;;;;43.03;25.60;;;2.00;99.90;;;;;;5050364;28;20045;-63
2022/12/19 03:08:04;;;;;;;41.85;23.55;;;2.00;99.90;;;;;;5033470;28;20040;-63
2022/12/19 03:10:46;;;;;;;42.22;24.33;;;2.10;99.90;;;;;;5051095;28;20064;-63
2022/12/19 03:13:18;;;;;;;40.35;24.48;;;2.10;99.90;;;;;;5050067;28;20047;-63
2022/12/19 03:15:47;;;;;;;38.08;22.42;;;2.10;99.90;;;;;;5051335;28;20490;-63
2022/12/19 03:18:13;;;;;;;43.67;25.13;;;2.10;99.90;;;;;;5032877;28;20053;-63
2022/12/19 03:20:47;;;;;;;44.97;23.67;;;2.10;99.90;;;;;;5051681;28;20040;-63
2022/12/19 03:23:13;;;;;;;43.85;24.95;;;2.10;99.90;;;;;;5051158;28;20041;-63
2022/12/19 03:25:44;;;;;;;37.03;23.05;;;2.20;99.90;;;;;;5032930;28;20098;-63
2022/12/19 03:28:21;;;;;;;40.65;23.67;;;2.20;99.90;;;;;;5033623;28;20052;-63
2022/12/19 03:30:48;;;;;;;43.10;22.98;;;2.20;99.90;;;;;;5032568;28;20041;-63
2022/12/19 03:33:17;;;;;;;38.88;24.30;;;2.20;99.90;;;;;;5033454;28;20048;-63
2022/12/19 03:35:45;;;;;;;41.05;22.17;;;2.20;99.90;;;;;;5033353;28;20045;-63
2022/12/19 03:38:12;;;;;;;45.92;26.50;;;2.30;99.90;;;;;;5052339;28;20052;-63
2022/12/19 03:40:43;;;;;;;45.33;25.25;;;2.30;99.90;;;;;;5054043;28;20056;-63
2022/12/19 03:43:10;;;;;;;42.03;24.52;;;2.30;99.90;;;;;;5054953;28;20041;-63
2022/12/19 03:45:53;;;;;;;43.50;25.25;;;2.30;99.90;;;;;;5036376;28;20559;-63
2022/12/19 03:48:42;;;;;;;44.63;25.40;;;2.30;99.90;;;;;;5054627;28;20045;-62
2022/12/19 03:51:14;;;;;;;45.72;24.80;;;2.30;99.90;;;;;;5036943;28;20100;-63
2022/12/19 03:53:49;;;;;;;42.40;24.55;;;2.30;99.90;;;;;;5054311;28;20123;-62
2022/12/19 03:56:38;;;;;;;46.78;26.95;;;2.30;99.90;;;;;;5036761;28;20041;-63
2022/12/19 03:59:16;;;;;;;40.10;24.45;;;2.30;99.90;;;;;;5035537;28;20055;-63
2022/12/19 04:01:43;;;;;;;41.75;23.70;;;2.30;99.90;;;;;;5036473;28;20124;-63
2022/12/19 04:04:11;;;;;;;45.70;27.98;;;2.40;99.90;;;;;;5054567;28;20116;-63
2022/12/19 04:06:39;;;;;;;48.25;27.00;;;2.40;99.90;;;;;;5053856;28;20041;-63
2022/12/19 04:09:06;;;;;;;48.88;27.25;;;2.40;99.90;;;;;;5054211;28;20095;-63
2022/12/19 04:11:39;;;;;;;46.38;25.92;;;2.40;99.90;;;;;;5054404;28;20052;-63
2022/12/19 04:14:11;;;;;;;51.53;27.35;;;2.40;99.90;;;;;;5053197;28;20041;-62
2022/12/19 04:16:56;;;;;;;40.53;26.40;;;2.40;99.90;;;;;;5053466;28;20508;-63
2022/12/19 04:19:33;;;;;;;47.60;26.83;;;2.50;99.90;;;;;;5054266;28;20440;-63
2022/12/19 04:22:06;;;;;;;40.05;24.23;;;2.50;99.90;;;;;;5053241;28;20045;-63
2022/12/19 04:24:35;;;;;;;51.97;28.05;;;2.50;99.90;;;;;;5036214;28;20057;-63
2022/12/19 04:27:04;;;;;;;47.40;27.00;;;2.50;99.90;;;;;;5053415;28;20164;-62
2022/12/19 04:29:33;;;;;;;44.88;25.45;;;2.50;99.90;;;;;;5036174;28;20501;-63
2022/12/19 04:32:01;;;;;;;44.30;26.42;;;2.60;99.90;;;;;;5035883;28;20033;-63
2022/12/19 04:34:27;;;;;;;48.28;26.98;;;2.50;99.90;;;;;;5035183;28;20037;-63
2022/12/19 04:36:53;;;;;;;46.33;26.80;;;2.60;99.90;;;;;;5053913;28;20044;-63
2022/12/19 04:39:18;;;;;;;47.78;26.65;;;2.60;99.90;;;;;;5035698;28;20053;-62
2022/12/19 04:41:44;;;;;;;50.08;27.75;;;2.60;99.90;;;;;;5051856;28;20049;-62
2022/12/19 04:44:10;;;;;;;44.58;26.60;;;2.60;99.90;;;;;;5052410;28;20547;-62
2022/12/19 04:46:35;;;;;;;51.38;26.52;;;2.60;99.90;;;;;;5052691;28;20405;-62
2022/12/19 04:49:01;;;;;;;47.15;26.23;;;2.60;99.90;;;;;;5052584;28;21201;-62
2022/12/19 04:51:26;;;;;;;45.55;27.17;;;2.60;99.90;;;;;;5052332;28;20043;-63
2022/12/19 04:53:52;;;;;;;42.75;25.75;;;2.70;99.90;;;;;;5035450;28;20244;-63
2022/12/19 04:56:18;;;;;;;47.60;26.15;;;2.60;99.90;;;;;;5052799;28;20072;-62
2022/12/19 04:58:43;;;;;;;47.92;26.58;;;2.70;99.90;;;;;;5052025;28;20080;-63
2022/12/19 05:01:09;;;;;;;42.08;26.05;;;2.70;99.90;;;;;;5053407;28;20040;-63
2022/12/19 05:03:35;;;;;;;46.70;26.27;;;2.80;99.90;;;;;;5051366;28;20401;-63
2022/12/19 05:06:10;;;;;;;48.53;28.20;;;2.70;99.90;;;;;;5052038;28;20891;-63
2022/12/19 05:08:37;;;;;;;47.22;27.70;;;2.70;99.90;;;;;;5053204;28;20045;-62
2022/12/19 05:11:04;;;;;;;47.85;27.70;;;2.80;99.90;;;;;;5034501;28;20045;-63
2022/12/19 05:13:30;;;;;;;49.20;26.15;;;2.80;99.90;;;;;;5035467;28;20083;-62
2022/12/19 05:16:02;;;;;;;46.72;27.73;;;2.80;99.90;;;;;;5034465;28;20531;-63
2022/12/19 05:18:28;;;;;;;42.58;25.10;;;2.80;99.90;;;;;;5052749;28;20393;-63
2022/12/19 05:20:54;;;;;;;38.92;24.60;;;2.90;99.90;;;;;;5035129;28;20037;-63
2022/12/19 05:23:21;;;;;;;48.13;28.00;;;2.90;99.90;;;;;;5050983;28;20052;-63
2022/12/19 05:25:47;;;;;;;47.08;26.15;;;2.90;99.90;;;;;;5034876;28;20068;-63
2022/12/19 05:28:13;;;;;;;44.72;25.20;;;3.00;99.90;;;;;;5052744;28;20636;-63
2022/12/19 05:30:39;;;;;;;49.97;28.58;;;3.00;99.90;;;;;;5034361;28;20049;-62
2022/12/19 05:33:05;;;;;;;45.88;25.75;;;3.00;99.90;;;;;;5034810;28;20090;-62
2022/12/19 05:35:30;;;;;;;50.72;28.30;;;3.00;99.90;;;;;;5034901;28;20040;-62
2022/12/19 05:37:56;;;;;;;49.30;27.10;;;3.00;99.90;;;;;;5051964;28;20037;-62
2022/12/19 05:40:22;;;;;;;47.33;26.27;;;3.00;99.90;;;;;;5051329;28;20041;-62
2022/12/19 05:42:47;;;;;;;45.38;25.38;;;3.00;99.90;;;;;;5051322;28;20394;-63
2022/12/19 05:45:13;;;;;;;43.58;24.75;;;3.00;99.90;;;;;;5050445;28;20040;-62
2022/12/19 05:47:39;;;;;;;44.78;25.10;;;3.10;99.90;;;;;;5034768;28;20063;-63
2022/12/19 05:50:05;;;;;;;41.88;24.30;;;3.10;99.90;;;;;;5050767;28;20142;-62
2022/12/19 05:52:30;;;;;;;43.78;26.13;;;3.10;99.90;;;;;;5051737;28;20040;-62
2022/12/19 05:54:56;;;;;;;45.65;25.52;;;3.10;99.90;;;;;;5051398;28;20072;-62
2022/12/19 05:57:23;;;;;;;39.70;24.00;;;3.10;99.90;;;;;;5034304;28;20401;-63
2022/12/19 05:59:48;;;;;;;47.65;26.83;;;3.20;99.90;;;;;;5051124;28;20040;-62
2022/12/19 06:02:14;;;;;;;40.05;24.17;;;3.20;99.90;;;;;;5051813;28;20440;-62
2022/12/19 06:04:40;;;;;;;37.72;22.38;;;3.10;99.90;;;;;;5052302;28;20539;-62
2022/12/19 06:07:06;;;;;;;35.53;22.10;;;3.20;99.90;;;;;;5033516;28;20496;-63
2022/12/19 06:09:31;;;;;;;35.58;22.48;;;3.20;99.90;;;;;;5034302;28;20099;-62
2022/12/19 06:11:57;;;;;;;40.03;25.05;;;3.30;99.90;;;;;;5050833;28;20043;-62
2022/12/19 06:14:23;;;;;;;38.95;22.45;;;3.30;99.90;;;;;;5049986;28;20144;-63
2022/12/19 06:16:48;;;;;;;35.50;22.75;;;3.30;99.90;;;;;;5050676;28;20072;-63
2022/12/19 06:19:14;;;;;;;38.83;23.55;;;3.30;99.90;;;;;;5051082;28;20111;-63
2022/12/19 06:21:40;;;;;;;41.88;22.95;;;3.30;99.90;;;;;;5051329;28;20106;-63
2022/12/19 06:24:05;;;;;;;40.13;22.83;;;3.30;99.90;;;;;;5051738;28;20141;-63
2022/12/19 06:26:31;;;;;;;39.60;22.48;;;3.30;99.90;;;;;;5050056;28;20052;-63
2022/12/19 06:28:57;;;;;;;38.05;22.67;;;3.30;99.90;;;;;;5051691;28;20045;-63
2022/12/19 06:31:24;;;;;;;36.90;21.95;;;3.40;99.90;;;;;;5051551;28;20129;-63
2022/12/19 06:33:50;;;;;;;36.17;22.15;;;3.40;99.90;;;;;;5033024;28;20087;-62
2022/12/19 06:36:26;;;;;;;33.83;20.88;;;3.40;99.90;;;;;;5017291;28;20040;-62
2022/12/19 06:38:53;;;;;;;36.25;20.65;;;3.50;99.90;;;;;;5034146;28;20186;-62
2022/12/19 06:44:05;;;;;;;30.20;18.98;;;3.50;99.90;;;;;;5051674;28;20104;-62
2022/12/19 06:46:32;;;;;;;32.10;20.05;;;3.50;99.90;;;;;;5033843;28;20045;-62
2022/12/19 06:48:58;;;;;;;29.75;18.95;;;3.60;99.90;;;;;;5050774;28;20041;-62
2022/12/19 06:51:23;;;;;;;32.08;19.20;;;3.50;99.90;;;;;;5050250;28;20049;-62
2022/12/19 06:53:50;;;;;;;28.98;17.42;;;3.60;99.90;;;;;;5051634;28;20071;-62
2022/12/19 06:56:16;;;;;;;25.48;16.45;;;3.60;99.90;;;;;;5032880;28;20029;-62
2022/12/19 06:58:42;;;;;;;28.05;16.83;;;3.60;99.90;;;;;;5051422;28;20501;-62
2022/12/19 07:01:18;;;;;;;30.58;18.58;;;3.60;99.90;;;;;;5057051;28;20044;-62
2022/12/19 07:03:45;;;;;;;26.83;16.48;;;3.60;99.90;;;;;;5057023;28;20044;-62
2022/12/19 07:06:10;;;;;;;25.33;16.38;;;3.70;99.90;;;;;;5067139;28;20051;-62
2022/12/19 07:08:36;;;;;;;27.25;16.08;;;3.70;99.90;;;;;;5050512;28;20048;-63
2022/12/19 07:11:03;;;;;;;27.48;16.20;;;3.70;99.90;;;;;;5050865;28;20040;-62
2022/12/19 07:13:29;;;;;;;29.15;16.83;;;3.80;99.90;;;;;;5071198;28;20393;-63
2022/12/19 07:15:57;;;;;;;28.38;16.63;;;3.80;99.90;;;;;;5037238;28;20123;-62
2022/12/19 07:18:23;;;;;;;26.85;16.55;;;3.90;99.90;;;;;;5065456;28;20059;-62
2022/12/19 07:20:49;;;;;;;25.35;15.88;;;3.80;99.90;;;;;;5057278;28;20044;-62
2022/12/19 07:23:19;;;;;;;28.75;17.13;;;3.90;99.90;;;;;;5070744;28;20106;-62
2022/12/19 07:25:45;;;;;;;23.45;15.93;;;3.90;99.90;;;;;;5034498;28;20551;-63
2022/12/19 07:28:11;;;;;;;25.45;15.77;;;3.90;99.90;;;;;;5043708;28;20135;-62
2022/12/19 07:30:36;;;;;;;25.42;16.13;;;4.00;99.90;;;;;;5072513;28;20139;-62
2022/12/19 07:33:02;;;;;;;27.30;16.25;;;4.00;99.90;;;;;;5058507;28;20049;-62
2022/12/19 07:35:28;;;;;;;25.00;16.45;;;4.00;99.90;;;;;;5072750;28;20037;-63
2022/12/19 07:37:54;;;;;;;25.00;15.65;;;4.10;99.90;;;;;;5026816;28;20048;-63
2022/12/19 07:40:19;;;;;;;28.63;16.40;;;4.10;99.90;;;;;;5017853;28;20037;-62
2022/12/19 07:42:45;;;;;;;23.73;14.77;;;4.10;99.90;;;;;;5018427;28;20045;-63
2022/12/19 07:45:11;;;;;;;24.65;15.48;;;4.10;99.90;;;;;;5017693;28;20494;-63
2022/12/19 07:47:37;;;;;;;23.05;14.93;;;4.20;99.90;;;;;;5065036;28;20446;-62
2022/12/19 07:50:03;;;;;;;21.73;13.98;;;4.20;99.90;;;;;;5072128;28;20041;-62
2022/12/19 07:52:29;;;;;;;23.13;14.43;;;4.30;99.90;;;;;;5067727;28;20048;-62
2022/12/19 07:58:36;;;;;;;23.02;15.25;;;4.40;99.90;;;;;;5067407;28;20043;-63
2022/12/19 08:01:02;;;;;;;22.67;14.48;;;4.40;99.90;;;;;;5050556;28;20037;-62
2022/12/19 08:03:32;;;;;;;23.00;14.38;;;4.50;99.90;;;;;;5069705;28;20054;-63
2022/12/19 08:06:04;;;;;;;21.17;14.00;;;4.50;99.90;;;;;;5065927;28;20474;-63
2022/12/19 08:08:30;;;;;;;23.27;14.40;;;4.50;99.90;;;;;;5062295;28;20651;-63
2022/12/19 08:11:09;;;;;;;21.30;13.63;;;4.60;99.90;;;;;;5053513;28;20041;-63
2022/12/19 08:13:35;;;;;;;19.27;13.15;;;4.60;99.90;;;;;;5069211;28;20043;-63
2022/12/19 08:16:00;;;;;;;24.13;15.15;;;4.60;99.90;;;;;;5068146;28;20389;-63
2022/12/19 08:18:26;;;;;;;17.92;13.05;;;4.60;99.90;;;;;;5053451;28;20036;-63
2022/12/19 08:20:52;;;;;;;26.63;15.52;;;4.70;99.90;;;;;;5070557;28;20036;-63
2022/12/19 08:23:18;;;;;;;23.85;14.55;;;4.70;99.90;;;;;;5069943;28;20040;-63
2022/12/19 08:25:43;;;;;;;19.95;13.52;;;4.80;99.90;;;;;;5031543;28;20049;-63
2022/12/19 08:28:09;;;;;;;19.45;11.93;;;4.90;99.90;;;;;;5028850;28;20128;-63
2022/12/19 08:30:40;;;;;;;21.45;14.40;;;4.90;99.90;;;;;;5029867;28;20065;-63
2022/12/19 08:33:06;;;;;;;23.15;14.00;;;5.00;99.90;;;;;;5028568;28;20045;-63
2022/12/19 08:35:34;;;;;;;17.75;12.13;;;5.00;99.90;;;;;;5029292;28;20096;-63
2022/12/19 08:38:00;;;;;;;18.20;12.93;;;5.10;99.90;;;;;;5008999;28;20037;-63
2022/12/19 08:40:26;;;;;;;22.48;13.63;;;5.10;99.90;;;;;;5028415;28;20048;-63
2022/12/19 08:42:52;;;;;;;22.60;13.68;;;5.20;99.90;;;;;;5012821;28;20140;-63
2022/12/19 08:45:18;;;;;;;22.75;14.63;;;5.20;99.90;;;;;;5013186;28;20069;-63
2022/12/19 08:47:44;;;;;;;22.08;13.60;;;5.30;99.90;;;;;;5028816;28;21528;-63
2022/12/19 08:50:10;;;;;;;18.55;12.70;;;5.30;99.90;;;;;;5026228;28;20064;-63
2022/12/19 08:52:36;;;;;;;19.65;13.57;;;5.40;99.90;;;;;;5013478;28;20352;-63
2022/12/19 08:55:03;;;;;;;22.27;15.27;;;5.40;99.90;;;;;;5030378;28;20048;-63
2022/12/19 08:57:28;;;;;;;22.30;14.27;;;5.40;99.90;;;;;;5029352;28;20052;-63
2022/12/19 08:59:54;;;;;;;23.30;15.32;;;5.50;99.90;;;;;;5029324;28;20045;-63
2022/12/19 09:02:20;;;;;;;20.63;14.20;;;5.50;99.90;;;;;;5030080;28;20128;-63
2022/12/19 09:04:46;;;;;;;22.80;15.32;;;5.60;99.90;;;;;;5029809;28;20462;-64
2022/12/19 09:07:12;;;;;;;21.00;15.40;;;5.70;99.90;;;;;;5006458;28;20041;-63
2022/12/19 09:09:38;;;;;;;23.95;14.85;;;5.70;99.90;;;;;;5027991;28;20068;-63
2022/12/19 09:12:04;;;;;;;24.90;14.90;;;5.70;99.90;;;;;;5028687;28;20505;-63
2022/12/19 09:14:36;;;;;;;22.25;15.80;;;5.80;99.90;;;;;;5029367;28;20509;-63
2022/12/19 09:17:02;;;;;;;23.05;15.95;;;5.80;99.90;;;;;;5027753;28;20550;-64
2022/12/19 09:19:28;;;;;;;21.40;15.60;;;5.80;99.90;;;;;;5027615;28;20060;-63
2022/12/19 09:21:54;;;;;;;21.95;15.32;;;5.90;99.90;;;;;;5028538;28;20037;-63
2022/12/19 09:24:19;;;;;;;25.48;17.40;;;5.90;99.90;;;;;;5027557;28;20134;-63
2022/12/19 09:26:45;;;;;;;25.00;16.77;;;6.00;99.90;;;;;;5025956;28;20541;-63
2022/12/19 09:29:12;;;;;;;24.00;16.88;;;6.00;99.90;;;;;;5029666;28;20045;-63
2022/12/19 09:31:38;;;;;;;26.05;17.65;;;6.00;99.90;;;;;;5015722;28;20099;-63
2022/12/19 09:34:04;;;;;;;25.40;17.50;;;6.00;99.90;;;;;;5014951;28;20479;-62
2022/12/19 09:36:30;;;;;;;23.52;16.95;;;6.10;99.90;;;;;;5030027;28;20080;-63
2022/12/19 09:38:57;;;;;;;22.80;16.70;;;6.10;99.90;;;;;;5015196;28;20091;-62
2022/12/19 09:41:44;;;;;;;27.70;18.60;;;6.10;99.90;;;;;;5031379;28;20049;-62
2022/12/19 09:44:31;;;;;;;25.33;17.02;;;6.20;99.90;;;;;;5012101;28;20128;-62
2022/12/19 09:47:12;;;;;;;26.42;17.77;;;6.20;99.90;;;;;;5012059;28;20395;-63
2022/12/19 09:49:42;;;;;;;25.45;17.52;;;6.20;99.90;;;;;;5008605;28;20506;-63
2022/12/19 09:52:32;;;;;;;28.08;19.52;;;6.20;99.90;;;;;;5030227;28;20045;-63
2022/12/19 09:55:19;;;;;;;25.02;17.02;;;6.30;99.90;;;;;;5030669;28;20116;-62
2022/12/19 09:58:10;;;;;;;28.58;18.40;;;6.30;99.90;;;;;;5029453;28;20556;-62
2022/12/19 10:00:51;;;;;;;23.35;16.55;;;6.30;99.90;;;;;;5031411;28;20352;-62
2022/12/19 10:03:31;;;;;;;28.95;17.92;;;6.30;99.90;;;;;;5031096;28;20120;-62
2022/12/19 10:06:02;;;;;;;27.13;19.23;;;6.50;99.90;;;;;;5030184;28;20042;-62
2022/12/19 10:08:39;;;;;;;24.90;17.58;;;6.40;99.90;;;;;;5030898;28;20569;-62
2022/12/19 10:11:21;;;;;;;26.83;18.45;;;6.60;99.90;;;;;;5032039;28;20040;-65
2022/12/19 10:14:22;;;;;;;25.88;17.85;;;6.60;99.90;;;;;;5029571;28;20457;-62
2022/12/19 10:17:08;;;;;;;22.10;16.48;;;6.60;99.90;;;;;;4979906;28;20498;-62
2022/12/19 10:20:08;;;;;;;24.67;17.88;;;6.60;99.90;;;;;;5010963;28;20124;-62
2022/12/19 10:23:08;;;;;;;25.27;17.55;;;6.60;99.90;;;;;;5025583;28;20056;-63
2022/12/19 10:26:08;;;;;;;27.30;18.00;;;6.60;99.90;;;;;;5062131;28;20071;-63
2022/12/19 10:28:58;;;;;;;20.95;15.80;;;6.60;99.90;;;;;;5055875;28;20048;-62
2022/12/19 10:31:32;;;;;;;22.33;17.23;;;6.70;99.90;;;;;;5052186;28;20422;-63
2022/12/19 10:34:18;;;;;;;24.80;16.25;;;6.80;99.90;;;;;;5049912;28;20033;-63
2022/12/19 10:36:48;;;;;;;23.42;15.90;;;6.80;99.90;;;;;;5050503;28;20041;-63
2022/12/19 10:39:32;;;;;;;22.25;16.10;;;6.80;99.90;;;;;;5054169;28;20045;-63
2022/12/19 10:42:10;;;;;;;23.25;16.08;;;6.80;99.90;;;;;;5048466;28;20076;-63
2022/12/19 10:44:38;;;;;;;21.83;15.88;;;6.90;99.90;;;;;;5034000;28;20513;-64
2022/12/19 10:47:04;;;;;;;20.98;16.05;;;6.90;99.90;;;;;;5051092;28;20049;-63
2022/12/19 10:49:30;;;;;;;21.25;15.20;;;6.90;99.90;;;;;;5054939;28;20045;-63
2022/12/19 10:52:04;;;;;;;23.05;15.75;;;7.00;99.90;;;;;;5055611;28;20040;-63
2022/12/19 10:54:38;;;;;;;21.30;15.27;;;7.00;99.90;;;;;;5055095;28;20512;-63
2022/12/19 10:57:26;;;;;;;19.57;14.17;;;7.10;99.90;;;;;;5053832;28;20033;-63
2022/12/19 11:00:13;;;;;;;20.48;14.93;;;7.10;99.90;;;;;;5055032;28;20277;-63
2022/12/19 11:02:43;;;;;;;21.67;15.68;;;7.10;99.90;;;;;;5053980;28;20040;-62
2022/12/19 11:05:30;;;;;;;19.55;14.65;;;7.10;99.90;;;;;;5054665;28;20473;-62
2022/12/19 11:08:05;;;;;;;19.60;13.13;;;7.20;99.90;;;;;;5053337;28;20120;-63
2022/12/19 11:10:44;;;;;;;20.42;13.90;;;7.30;99.90;;;;;;5054568;28;20047;-63
2022/12/19 11:13:21;;;;;;;19.20;13.38;;;7.30;99.90;;;;;;5038061;28;20362;-63
2022/12/19 11:15:57;;;;;;;18.85;13.45;;;7.30;99.90;;;;;;5053736;28;20036;-62
2022/12/19 11:18:32;;;;;;;19.92;14.35;;;7.40;99.90;;;;;;5054003;28;20226;-62
2022/12/19 11:21:16;;;;;;;20.23;13.68;;;7.40;99.90;;;;;;5053967;28;20545;-63
2022/12/19 11:23:59;;;;;;;18.15;12.88;;;7.50;99.90;;;;;;5059605;28;20043;-63
2022/12/19 11:26:54;;;;;;;16.35;12.80;;;7.40;99.90;;;;;;5058380;28;20101;-63
2022/12/19 11:29:46;;;;;;;19.05;13.73;;;7.40;99.90;;;;;;5055366;28;20076;-62
2022/12/19 11:32:27;;;;;;;16.27;11.75;;;7.50;99.90;;;;;;5056730;28;20128;-62
2022/12/19 11:35:03;;;;;;;16.75;12.95;;;7.50;99.90;;;;;;5057322;28;20055;-62
2022/12/19 11:37:56;;;;;;;15.80;11.93;;;7.50;99.90;;;;;;5056669;28;20044;-63
2022/12/19 11:40:40;;;;;;;16.85;12.02;;;7.50;99.90;;;;;;5073834;28;20059;-63
2022/12/19 11:43:21;;;;;;;15.35;11.63;;;7.50;99.90;;;;;;5056063;28;20041;-62
2022/12/19 11:46:05;;;;;;;18.67;11.95;;;7.50;99.90;;;;;;5057094;28;20036;-62
2022/12/19 11:48:44;;;;;;;14.73;11.60;;;7.60;99.90;;;;;;5069775;28;20075;-62
2022/12/19 11:51:31;;;;;;;16.73;12.23;;;7.60;99.90;;;;;;5060002;28;20033;-62
2022/12/19 11:54:12;;;;;;;16.55;11.52;;;7.70;99.90;;;;;;5062886;28;20024;-62
2022/12/19 11:56:38;;;;;;;14.57;11.50;;;7.60;99.90;;;;;;5074052;28;20028;-62
2022/12/19 11:59:18;;;;;;;15.68;11.70;;;7.70;99.90;;;;;;5062149;28;20485;-62
2022/12/19 12:02:03;;;;;;;16.02;11.45;;;7.70;99.90;;;;;;5063071;28;20044;-62
2022/12/19 12:05:07;;;;;;;15.68;11.27;;;7.70;99.90;;;;;;5047837;28;20045;-62
2022/12/19 12:07:38;;;;;;;16.17;11.13;;;7.70;99.90;;;;;;5073669;28;20063;-62
2022/12/19 12:10:16;;;;;;;15.77;10.88;;;7.80;99.90;;;;;;5072878;28;20048;-62
2022/12/19 12:13:01;;;;;;;16.30;10.85;;;7.70;99.90;;;;;;5064404;28;20055;-62
2022/12/19 12:15:32;;;;;;;15.15;10.95;;;7.70;99.90;;;;;;5052881;28;20128;-62
2022/12/19 12:18:12;;;;;;;14.73;10.70;;;7.80;99.90;;;;;;5052070;28;20037;-62
2022/12/19 12:20:59;;;;;;;16.55;11.27;;;7.80;99.90;;;;;;5045347;28;20098;-62
2022/12/19 12:23:40;;;;;;;15.20;11.68;;;7.80;99.90;;;;;;5064779;28;20037;-62
2022/12/19 12:26:24;;;;;;;13.85;10.23;;;7.80;99.90;;;;;;5072737;28;20040;-62
2022/12/19 12:29:05;;;;;;;13.25;9.80;;;7.80;99.90;;;;;;5072887;28;20076;-62
2022/12/19 12:31:44;;;;;;;13.88;9.90;;;7.80;99.90;;;;;;5057282;28;20033;-62
2022/12/19 12:34:12;;;;;;;12.70;9.38;;;7.80;99.90;;;;;;5064712;28;20497;-62
2022/12/19 12:36:49;;;;;;;20.63;10.55;;;7.80;99.90;;;;;;5061920;28;20493;-61
2022/12/19 12:39:37;;;;;;;13.82;9.65;;;7.90;99.90;;;;;;5070173;28;20033;-63
2022/12/19 12:42:41;;;;;;;13.88;10.57;;;7.90;99.90;;;;;;5073418;28;20040;-62
2022/12/19 12:45:21;;;;;;;15.48;10.95;;;7.90;99.90;;;;;;5045580;28;20032;-63
2022/12/19 12:47:50;;;;;;;14.48;9.85;;;7.80;99.90;;;;;;5042379;28;20044;-63
2022/12/19 12:50:17;;;;;;;12.30;9.30;;;7.90;99.90;;;;;;5050724;28;20401;-63
2022/12/19 12:52:51;;;;;;;13.60;9.27;;;7.80;99.90;;;;;;5072638;28;20040;-63
2022/12/19 12:55:25;;;;;;;12.73;9.00;;;7.90;99.90;;;;;;5071923;28;20397;-63
2022/12/19 12:57:51;;;;;;;13.35;9.93;;;7.90;99.90;;;;;;5038297;28;20036;-63
2022/12/19 13:00:29;;;;;;;12.38;9.32;;;7.80;99.90;;;;;;5071679;28;20033;-63
2022/12/19 13:03:15;;;;;;;13.52;9.50;;;7.80;99.90;;;;;;5069491;28;20033;-63
2022/12/19 13:06:09;;;;;;;16.45;10.73;;;7.90;99.90;;;;;;5059845;28;20040;-63
2022/12/19 13:08:47;;;;;;;14.43;10.02;;;7.90;99.90;;;;;;5055985;28;20155;-63